Latest Weather Observations for Moruya Airport

IDN60901

Issued at 9:51 am EST Tuesday 26 May 2020 (issued every 10 minutes, with the page automatically refreshed every 10 minutes)

About weather observations | Map of Canberra area stations | Latest observations for Canberra area | Other Formats
Station Details ID: 069148 Name: MORUYA AIRPORT AWS Lat: -35.90 Lon: 150.14 Height: 4.0 m
Data from the previous 72 hours. | See also: Recent months at Moruya Airport
Date/Time
EST
Temp
°C
App
Temp
°C
Dew
Point
°C
Rel
Hum
%
Delta-T
°C
Wind Press
QNH
hPa
Press
MSL
hPa
Rain since
9am
mm
Dir  Spd
km/h
Gust
km/h
Spd
kts
Gust
kts
26/09:30am 13.5 10.5 12.4 93 0.6 SW 20 24 11 13 1026.1 1026.1 0.2
26/09:25am 13.3 10.4 12.2 93 0.6 SW 19 24 10 13 1026.2 1026.2 0.2
26/09:10am 12.6 9.8 11.5 93 0.6 SSW 17 24 9 13 1026.2 1026.2 0.2
26/09:08am 12.6 9.8 11.5 93 0.6 SSW 17 26 9 14 1026.1 1026.1 0.2
26/09:00am 12.6 9.5 11.5 93 0.6 SSW 19 28 10 15 1026.0 1026.0 1.2
26/08:30am 12.4 9.5 11.1 92 0.7 SSW 17 20 9 11 1025.8 1025.8 0.6
26/08:00am 12.4 9.1 10.8 90 0.8 SSW 19 28 10 15 1025.5 1025.5 0.2
26/07:50am 12.5 9.1 10.7 89 0.9 SSW 19 26 10 14 1025.4 1025.4 0.0
26/07:30am 12.6 9.2 10.5 87 1.1 SSW 19 26 10 14 1025.1 1025.1 0.0
26/07:00am 13.3 9.1 9.9 80 1.7 SSW 22 37 12 20 1024.6 1024.6 0.0
26/06:30am 14.3 10.2 8.5 68 2.9 SSW 20 30 11 16 1024.4 1024.4 0.0
26/06:00am 14.4 11.2 8.4 67 3.0 SSW 15 20 8 11 1024.2 1024.2 0.0
26/05:30am 14.4 10.4 8.1 66 3.1 SSW 19 33 10 18 1024.1 1024.1 0.0
26/05:00am 14.2 10.2 8.4 68 2.9 SSW 19 28 10 15 1023.9 1023.9 0.0
26/04:30am 14.4 10.3 7.9 65 3.2 SSW 19 28 10 15 1023.8 1023.8 0.0
26/04:00am 14.3 10.0 7.8 65 3.2 SSW 20 35 11 19 1023.8 1023.8 0.0
26/03:30am 14.2 9.5 7.9 66 3.1 SSW 22 33 12 18 1023.8 1023.8 0.0
26/03:00am 14.0 9.8 8.2 68 2.9 SW 20 32 11 17 1023.9 1023.9 0.0
26/02:30am 13.5 9.0 8.6 72 2.5 SW 22 33 12 18 1024.1 1024.1 0.0
26/02:00am 14.1 9.1 7.9 66 3.1 SW 24 33 13 18 1024.2 1024.2 0.0
26/01:30am 14.3 10.5 7.6 64 3.3 SSW 17 24 9 13 1024.3 1024.3 0.0
26/01:00am 13.9 9.6 7.9 67 3.0 SSW 20 35 11 19 1024.3 1024.3 0.0
26/12:30am 14.3 9.8 7.1 62 3.5 SSW 20 28 11 15 1024.2 1024.2 0.0
26/12:00am 14.2 9.7 7.0 62 3.5 SSW 20 30 11 16 1024.2 1024.2 0.0
 
Date/Time
EST
Temp
°C
App
Temp
°C
Dew
Point
°C
Rel
Hum
%
Delta-T
°C
Wind Press
QNH
hPa
Press
MSL
hPa
Rain since
9am
mm
Dir  Spd
km/h
Gust
km/h
Spd
kts
Gust
kts
25/11:30pm 14.3 9.8 6.9 61 3.6 SSW 20 26 11 14 1024.1 1024.1 0.0
25/11:00pm 14.0 9.5 6.8 62 3.5 SW 20 28 11 15 1024.1 1024.1 0.0
25/10:30pm 14.2 9.3 7.0 62 3.5 SW 22 28 12 15 1024.2 1024.2 0.0
25/10:00pm 14.3 9.5 7.4 63 3.4 SSW 22 32 12 17 1024.2 1024.2 0.0
25/09:30pm 14.2 9.0 7.3 63 3.4 SW 24 35 13 19 1024.0 1024.0 0.0
25/09:00pm 14.4 9.6 7.5 63 3.4 SW 22 30 12 16 1024.1 1024.1 0.0
25/08:30pm 14.5 9.7 7.5 63 3.5 SSW 22 30 12 16 1024.0 1024.0 0.0
25/08:00pm 14.6 9.5 7.6 63 3.4 SSW 24 37 13 20 1023.6 1023.6 0.0
25/07:30pm 14.4 10.1 7.7 64 3.3 SW 20 26 11 14 1023.2 1023.2 0.0
25/07:00pm 14.5 9.8 7.8 64 3.3 SW 22 30 12 16 1023.1 1023.1 0.0
25/06:30pm 14.5 9.8 7.8 64 3.3 SSW 22 30 12 16 1022.8 1022.8 0.0
25/06:00pm 14.6 9.6 7.9 64 3.3 SSW 24 37 13 20 1022.5 1022.5 0.0
25/05:30pm 14.8 10.6 7.6 62 3.6 SSW 19 30 10 16 1022.0 1022.0 0.0
25/05:00pm 14.9 10.6 7.7 62 3.6 SSW 20 33 11 18 1021.9 1021.9 0.0
25/04:30pm 15.2 11.0 8.2 63 3.5 SSW 20 30 11 16 1021.6 1021.6 0.0
25/04:00pm 15.4 10.5 8.4 63 3.5 SSW 24 32 13 17 1021.5 1021.5 0.0
25/03:30pm 15.3 10.0 8.5 64 3.4 SSW 26 39 14 21 1021.4 1021.4 0.0
25/03:00pm 15.4 9.4 8.6 64 3.4 SSW 30 44 16 24 1021.3 1021.3 0.0
25/02:30pm 15.6 11.2 8.8 64 3.5 SSW 22 33 12 18 1021.1 1021.1 0.0
25/02:14pm 15.4 9.8 8.9 65 3.3 SSW 28 48 15 26 1021.1 1021.1 0.0
25/02:00pm 15.4 10.1 8.6 64 3.4 SSW 26 41 14 22 1020.9 1020.9 0.0
25/01:31pm 15.7 10.1 8.7 63 3.6 SSW 28 50 15 27 1020.7 1020.7 0.0
25/01:30pm 15.7 10.1 8.7 63 3.6 SSW 28 43 15 23 1020.7 1020.7 0.0
25/01:00pm 15.5 10.6 8.5 63 3.5 SSW 24 39 13 21 1020.7 1020.7 0.0
25/12:30pm 15.3 9.5 8.1 62 3.6 SSW 28 46 15 25 1020.8 1020.8 0.0
25/12:05pm 15.1 9.3 7.9 62 3.6 SSW 28 48 15 26 1021.0 1021.0 0.0
25/12:00pm 15.7 9.8 7.7 59 4.0 SSW 28 43 15 23 1020.9 1020.9 0.0
25/11:30am 14.8 8.1 7.4 61 3.6 SSW 32 50 17 27 1021.1 1021.1 0.0
25/11:14am 14.9 8.9 7.2 60 3.8 SSW 28 46 15 25 1021.2 1021.2 0.0
25/11:00am 15.1 8.8 7.2 59 3.9 SSW 30 41 16 22 1021.4 1021.4 0.0
25/10:38am 15.4 8.7 7.2 58 4.0 SSW 32 50 17 27 1021.2 1021.2 0.0
25/10:30am 15.3 8.5 6.8 57 4.2 SSW 32 44 17 24 1021.2 1021.2 0.0
25/10:00am 15.2 8.2 6.7 57 4.1 SSW 33 52 18 28 1021.1 1021.1 0.0
25/09:37am 14.6 8.6 6.9 60 3.8 SSW 28 46 15 25 1021.0 1021.0 0.0
25/09:30am 14.5 8.1 7.1 61 3.6 SSW 30 43 16 23 1020.9 1020.9 0.0
25/09:00am 14.2 8.7 7.5 64 3.3 SSW 26 37 14 20 1020.8 1020.8 0.0
25/08:34am 13.9 7.2 7.4 65 3.2 SW 32 52 17 28 1020.6 1020.6 0.0
25/08:30am 13.9 7.2 7.4 65 3.2 SSW 32 44 17 24 1020.5 1020.5 0.0
25/08:06am 13.7 7.7 7.2 65 3.2 SW 28 46 15 25 1020.1 1020.1 0.0
25/08:00am 13.6 8.0 7.2 65 3.1 SW 26 35 14 19 1020.1 1020.1 0.0
25/07:30am 13.4 7.7 6.7 64 3.2 SW 26 35 14 19 1019.9 1019.9 0.0
25/07:00am 13.7 8.4 6.6 62 3.4 SSW 24 33 13 18 1019.6 1019.6 0.0
25/06:31am 13.8 7.7 6.4 61 3.5 SSW 28 46 15 25 1019.2 1019.2 0.0
25/06:30am 13.7 7.9 6.3 61 3.5 SW 26 46 14 25 1019.3 1019.3 0.0
25/06:23am 13.9 7.7 6.3 60 3.6 SSW 28 46 15 25 1019.1 1019.1 0.0
25/06:00am 13.7 8.0 6.6 62 3.4 SW 26 39 14 21 1018.8 1018.8 0.0
25/05:30am 13.7 7.9 6.3 61 3.5 SSW 26 39 14 21 1018.6 1018.6 0.0
25/05:02am 13.6 7.4 6.2 61 3.5 SW 28 46 15 25 1018.3 1018.3 0.0
25/05:00am 13.7 7.9 6.3 61 3.5 SW 26 46 14 25 1018.3 1018.3 0.0
25/04:30am 13.7 7.5 6.3 61 3.5 SSW 28 48 15 26 1018.2 1018.2 0.0
25/04:05am 13.6 7.4 6.2 61 3.5 SSW 28 46 15 25 1018.1 1018.1 0.0
25/04:00am 13.5 7.4 6.6 63 3.3 SW 28 43 15 23 1018.0 1018.0 0.0
25/03:30am 13.4 7.3 6.7 64 3.2 SW 28 46 15 25 1018.0 1018.0 0.0
25/03:28am 13.3 7.3 6.9 65 3.1 SW 28 46 15 25 1018.0 1018.0 0.0
25/03:00am 12.8 7.2 7.0 68 2.8 SW 26 41 14 22 1018.2 1018.2 0.0
25/02:30am 12.8 7.2 7.0 68 2.8 SW 26 35 14 19 1018.2 1018.2 0.0
25/02:00am 12.8 6.8 7.0 68 2.8 SW 28 41 15 22 1018.3 1018.3 0.0
25/01:30am 12.4 7.5 6.9 69 2.6 SW 22 30 12 16 1018.3 1018.3 0.0
25/01:00am 12.4 7.2 7.3 71 2.5 SW 24 33 13 18 1018.2 1018.2 0.0
25/12:30am 12.6 6.2 7.1 69 2.7 SW 30 41 16 22 1018.2 1018.2 0.0
25/12:00am 12.7 7.0 6.7 67 2.9 SW 26 37 14 20 1018.2 1018.2 0.0
 
Date/Time
EST
Temp
°C
App
Temp
°C
Dew
Point
°C
Rel
Hum
%
Delta-T
°C
Wind Press
QNH
hPa
Press
MSL
hPa
Rain since
9am
mm
Dir  Spd
km/h
Gust
km/h
Spd
kts
Gust
kts
24/11:30pm 12.8 7.7 6.2 64 3.1 SW 22 33 12 18 1018.0 1018.0 0.0
24/11:00pm 12.8 7.4 6.2 64 3.1 SW 24 33 13 18 1018.2 1018.2 0.0
24/10:30pm 13.1 7.3 6.2 63 3.3 SW 26 43 14 23 1018.2 1018.2 0.0
24/10:00pm 13.1 7.3 6.2 63 3.3 SW 26 39 14 21 1017.9 1017.9 0.0
24/09:30pm 13.1 7.7 6.5 64 3.2 SW 24 35 13 19 1017.8 1017.8 0.0
24/09:00pm 13.0 7.7 6.6 65 3.1 SW 24 33 13 18 1017.7 1017.7 0.0
24/08:30pm 13.0 7.3 6.8 66 3.0 SW 26 35 14 19 1017.5 1017.5 0.0
24/08:00pm 13.3 8.0 6.6 64 3.2 SSW 24 37 13 20 1017.6 1017.6 0.0
24/07:30pm 13.7 8.3 6.3 61 3.5 SSW 24 41 13 22 1017.2 1017.2 0.0
24/07:00pm 14.1 8.6 6.0 58 3.9 SSW 24 39 13 21 1016.9 1016.9 0.0
24/06:30pm 14.6 9.4 5.7 55 4.2 SSW 22 37 12 20 1016.6 1016.6 0.0
24/06:00pm 14.5 9.6 5.3 54 4.3 SSW 20 32 11 17 1016.3 1016.3 0.0
24/05:30pm 14.6 9.3 5.1 53 4.5 SSW 22 39 12 21 1016.1 1016.1 0.0
24/05:00pm 14.8 9.5 5.1 52 4.6 SSW 22 35 12 19 1015.7 1015.7 0.0
24/04:30pm 15.0 9.7 5.0 51 4.7 SSW 22 35 12 19 1015.3 1015.3 0.0
24/04:00pm 16.0 9.9 5.0 48 5.2 SSW 26 39 14 21 1015.2 1015.2 0.0
24/03:30pm 16.4 9.2 4.8 46 5.5 SSW 32 46 17 25 1014.9 1014.9 0.0
24/03:00pm 17.4 11.1 4.0 41 6.3 SSW 26 46 14 25 1014.4 1014.4 0.0
24/02:56pm 17.4 11.0 5.0 44 5.9 SSW 28 46 15 25 1014.3 1014.3 0.0
24/02:30pm 16.9 10.3 4.3 43 5.9 SSW 28 39 15 21 1014.2 1014.2 0.0
24/02:00pm 17.4 10.2 5.0 44 5.9 SSW 32 50 17 27 1014.3 1014.3 0.0
24/01:35pm 18.0 11.2 4.9 42 6.3 SSW 30 50 16 27 1014.2 1014.2 0.0
24/01:30pm 18.0 10.4 5.9 45 5.9 SSW 35 48 19 26 1014.1 1014.1 0.0
24/01:00pm 18.1 11.1 6.0 45 5.9 SSW 32 48 17 26 1014.1 1014.1 0.0
24/12:30pm 17.8 10.5 5.4 44 6.0 SSW 33 56 18 30 1014.1 1014.1 0.0
24/12:06pm 17.8 10.2 5.7 45 5.9 SSW 35 54 19 29 1014.4 1014.4 0.0
24/12:00pm 17.9 10.0 6.4 47 5.7 SSW 37 52 20 28 1014.4 1014.4 0.0
24/11:30am 17.9 11.2 5.8 45 5.9 SSW 30 52 16 28 1014.6 1014.6 0.0
24/11:02am 17.6 11.1 4.9 43 6.1 SSW 28 52 15 28 1014.7 1014.7 0.0
24/11:00am 17.9 11.6 5.8 45 5.9 SSW 28 43 15 23 1014.6 1014.6 0.0
24/10:41am 17.4 10.3 5.4 45 5.8 SSW 32 50 17 27 1014.7 1014.7 0.0
24/10:30am 17.4 10.7 5.4 45 5.8 SSW 30 46 16 25 1014.7 1014.7 0.0
24/10:00am 16.6 9.5 5.3 47 5.4 SSW 32 50 17 27 1014.7 1014.7 0.0
24/09:30am 15.4 9.3 6.4 55 4.4 SSW 28 56 15 30 1014.5 1014.5 0.0
24/09:12am 15.5 9.0 6.5 55 4.4 SSW 30 48 16 26 1014.4 1014.4 0.0
24/09:00am 15.5 8.7 6.8 56 4.3 SSW 32 44 17 24 1014.2 1014.2 0.0
24/08:39am 15.3 9.2 6.8 57 4.2 SSW 28 46 15 25 1013.8 1013.8 0.0
24/08:30am 15.3 8.6 7.3 59 4.0 SSW 32 46 17 25 1013.8 1013.8 0.0
24/08:00am 14.9 9.9 7.9 63 3.5 SSW 24 35 13 19 1013.7 1013.7 0.0
24/07:30am 14.3 9.4 8.3 67 3.0 SSW 24 35 13 19 1013.4 1013.4 0.0
24/07:00am 14.3 8.3 8.5 68 2.9 SSW 30 48 16 26 1012.7 1012.7 0.0
24/06:30am 14.5 9.1 8.0 65 3.2 SSW 26 41 14 22 1012.4 1012.4 0.0
24/06:00am 14.6 9.4 7.4 62 3.5 SSW 24 33 13 18 1012.0 1012.0 0.0
24/05:30am 14.7 9.4 7.0 60 3.8 SSW 24 37 13 20 1011.7 1011.7 0.0
24/05:00am 14.5 8.8 6.8 60 3.7 SSW 26 39 14 21 1011.5 1011.5 0.0
24/04:30am 14.3 8.9 6.4 59 3.8 SSW 24 35 13 19 1011.3 1011.3 0.0
24/04:00am 14.3 8.9 6.2 58 3.9 SW 24 35 13 19 1011.2 1011.2 0.0
24/03:30am 14.4 9.0 6.3 58 3.9 SSW 24 35 13 19 1011.0 1011.0 0.0
24/03:00am 14.4 9.3 6.0 57 4.0 SSW 22 32 12 17 1010.9 1010.9 0.0
24/02:30am 14.9 8.3 6.2 56 4.2 SW 30 44 16 24 1011.1 1011.1 0.0
24/02:00am 14.8 9.0 6.1 56 4.2 SW 26 37 14 20 1011.1 1011.1 0.0
24/01:30am 14.5 9.9 5.6 55 4.2 SW 19 32 10 17 1010.9 1010.9 0.0
24/01:00am 14.5 9.6 5.3 54 4.3 SW 20 37 11 20 1010.7 1010.7 0.0
24/12:30am 15.1 9.6 5.9 54 4.4 SW 24 32 13 17 1010.6 1010.6 0.0
24/12:00am 14.7 9.5 5.5 54 4.4 SW 22 35 12 19 1010.4 1010.4 0.0
 
Date/Time
EST
Temp
°C
App
Temp
°C
Dew
Point
°C
Rel
Hum
%
Delta-T
°C
Wind Press
QNH
hPa
Press
MSL
hPa
Rain since
9am
mm
Dir  Spd
km/h
Gust
km/h
Spd
kts
Gust
kts
23/11:30pm 14.9 9.7 5.4 53 4.5 SW 22 35 12 19 1010.1 1010.1 0.0
23/11:00pm 15.0 9.8 5.5 53 4.5 SW 22 37 12 20 1010.1 1010.1 0.0
23/10:30pm 14.7 9.4 5.0 52 4.5 SW 22 28 12 15 1010.0 1010.0 0.0
23/10:00pm 14.7 9.1 5.2 53 4.5 SW 24 35 13 19 1010.0 1010.0 0.0
23/09:30pm 14.9 10.1 5.4 53 4.5 SW 20 32 11 17 1009.9 1009.9 0.0
23/09:00pm 14.9 10.1 5.4 53 4.5 SW 20 32 11 17 1009.7 1009.7 0.0
23/08:30pm 14.8 9.6 5.6 54 4.4 SW 22 32 12 17 1009.4 1009.4 0.0
23/08:00pm 14.8 9.6 5.6 54 4.4 SW 22 32 12 17 1009.2 1009.2 0.0
23/07:30pm 15.1 10.3 5.6 53 4.5 SW 20 32 11 17 1009.0 1009.0 0.0
23/07:00pm 15.3 10.5 5.8 53 4.6 SW 20 32 11 17 1008.7 1008.7 0.0
23/06:30pm 15.5 10.9 5.7 52 4.7 SW 19 32 10 17 1008.6 1008.6 0.0
23/06:00pm 15.7 11.1 5.6 51 4.8 WSW 19 30 10 16 1008.2 1008.1 0.0
23/05:30pm 16.1 12.7 5.7 50 5.0 WSW 13 20 7 11 1008.1 1008.0 0.0
23/05:00pm 16.2 12.0 5.8 50 5.0 WSW 17 26 9 14 1007.8 1007.7 0.0
23/04:30pm 16.6 12.1 6.1 50 5.1 SW 19 30 10 16 1007.7 1007.6 0.0
23/04:00pm 16.7 12.2 5.9 49 5.2 WSW 19 26 10 14 1007.2 1007.1 0.0
23/03:30pm 16.9 12.4 6.1 49 5.3 SW 19 30 10 16 1007.1 1007.0 0.0
23/03:00pm 17.0 12.5 6.2 49 5.3 WSW 19 32 10 17 1006.7 1006.6 0.0
23/02:30pm 17.7 13.6 6.3 47 5.6 SW 17 26 9 14 1006.5 1006.4 0.0
23/02:00pm 17.4 12.9 6.0 47 5.6 SW 19 30 10 16 1006.4 1006.3 0.0
23/01:30pm 17.3 12.2 6.2 48 5.4 SW 22 35 12 19 1006.5 1006.4 0.0
23/01:00pm 17.2 12.6 6.4 49 5.3 SW 20 30 11 16 1006.8 1006.7 0.0
23/12:30pm 16.8 11.3 5.7 48 5.4 SW 24 35 13 19 1007.1 1007.0 0.0
23/12:00pm 16.6 11.0 5.6 48 5.3 SW 24 35 13 19 1007.4 1007.3 0.0
23/11:30am 16.8 11.3 5.7 48 5.4 SW 24 35 13 19 1007.9 1007.8 0.0
23/11:00am 16.5 10.6 5.8 49 5.2 SW 26 39 14 21 1008.1 1008.0 0.0
23/10:30am 16.4 9.7 5.4 48 5.3 SW 30 44 16 24 1008.1 1008.0 0.0
23/10:00am 16.3 10.4 5.9 50 5.0 SW 26 39 14 21 1008.2 1008.1 0.0

Latest Capital City Observations: Canberra | Sydney | Melbourne | Brisbane | Adelaide | Perth | Hobart | Darwin

Other formats

Comma delimited format used in spreadsheet applications
http://www.bom.gov.au/fwo/IDN60903/IDN60903.95937.axf

JavaScript Object Notation format (JSON) in row-major order
http://www.bom.gov.au/fwo/IDN60903/IDN60903.95937.json

Data quality

Most of these data are generated automatically and are frequently updated. Quality checks on data are not normally performed. It is possible for incorrect values to appear. Refer to information at About Latest Weather Observations and please check the disclaimer before using these data.